Time;durP1;ratioP1;P1;durP2;ratioP2;P2;SDS_P1;SDS_P2;PMS_P1;PMS_P2;Temp;Humidity;BMP_temperature;BMP_pressure;BME280_temperature;BME280_humidity;BME280_pressure;Samples;Min_cycle;Max_cycle;Signal;HPM_P1;HPM_P2
2023/10/03 00:00:24;;;;;;;14.93;7.63;;;;;;;14.16;84.35;95569.88;5090776;28;20186;-45
2023/10/03 00:02:55;;;;;;;12.37;7.87;;;;;;;14.14;84.47;95569.22;5077940;28;20541;-44
2023/10/03 00:05:23;;;;;;;9.83;6.80;;;;;;;14.14;84.55;95569.22;5082173;28;20329;-43
2023/10/03 00:07:51;;;;;;;13.40;6.97;;;;;;;14.13;84.74;95571.00;5091206;28;20205;-43
2023/10/03 00:10:18;;;;;;;10.10;6.70;;;;;;;14.15;84.65;95574.22;5090657;28;20205;-44
2023/10/03 00:12:48;;;;;;;11.30;6.90;;;;;;;14.15;85.00;95581.13;5090923;28;20614;-44
2023/10/03 00:15:15;;;;;;;7.83;6.73;;;;;;;14.12;85.31;95573.69;5089288;28;20182;-45
2023/10/03 00:17:50;;;;;;;8.93;6.43;;;;;;;14.04;85.43;95576.97;5050737;28;20180;-44
2023/10/03 00:20:20;;;;;;;17.50;7.70;;;;;;;14.00;85.49;95578.19;5050517;28;20204;-44
2023/10/03 00:22:47;;;;;;;9.70;7.17;;;;;;;13.98;85.16;95575.72;5082441;28;20186;-45
2023/10/03 00:25:18;;;;;;;10.60;7.10;;;;;;;13.95;85.45;95580.34;5050112;28;20214;-44
2023/10/03 00:27:46;;;;;;;12.43;7.60;;;;;;;13.90;85.93;95579.94;5050129;28;20262;-43
2023/10/03 00:30:15;;;;;;;9.33;6.83;;;;;;;13.70;86.23;95550.84;5054882;28;20328;-44
2023/10/03 00:32:43;;;;;;;11.33;7.00;;;;;;;13.64;86.18;95549.63;5070530;28;20187;-44
2023/10/03 00:35:11;;;;;;;13.40;6.90;;;;;;;13.79;86.31;95570.59;5068658;28;20627;-44
2023/10/03 00:37:40;;;;;;;10.60;6.93;;;;;;;13.77;86.63;95572.47;5070395;28;20208;-45
2023/10/03 00:40:16;;;;;;;11.10;7.20;;;;;;;13.76;86.63;95570.88;5069806;28;20194;-44
2023/10/03 00:42:47;;;;;;;11.60;6.90;;;;;;;13.74;86.67;95572.78;5069712;28;20225;-45
2023/10/03 00:45:19;;;;;;;10.80;7.07;;;;;;;13.74;86.57;95571.00;5069776;28;20202;-45
2023/10/03 00:47:47;;;;;;;9.27;6.57;;;;;;;13.77;86.56;95564.78;5069099;28;20798;-44
2023/10/03 00:50:16;;;;;;;12.00;6.70;;;;;;;13.77;86.74;95569.91;5069673;28;20624;-43
2023/10/03 00:52:45;;;;;;;11.00;7.10;;;;;;;13.74;87.07;95572.78;5069812;28;20343;-45
2023/10/03 00:55:14;;;;;;;11.00;6.87;;;;;;;13.71;87.16;95578.19;5069505;28;20696;-43
2023/10/03 00:57:42;;;;;;;9.57;6.80;;;;;;;13.69;87.02;95570.63;5069501;28;20687;-44
2023/10/03 01:00:15;;;;;;;10.10;6.63;;;;;;;13.69;87.05;95578.31;5069866;28;20277;-45
2023/10/03 01:02:52;;;;;;;9.90;6.67;;;;;;;13.69;87.19;95574.94;5069719;28;20190;-45
2023/10/03 01:05:23;;;;;;;11.33;6.80;;;;;;;13.66;87.04;95576.00;5067974;28;20273;-45
2023/10/03 01:07:51;;;;;;;18.07;8.07;;;;;;;13.64;87.24;95583.03;5069494;28;20242;-43
2023/10/03 01:10:19;;;;;;;9.57;6.97;;;;;;;13.61;87.02;95572.22;5069649;28;20255;-44
2023/10/03 01:12:47;;;;;;;9.80;7.17;;;;;;;13.60;87.55;95576.56;5069853;28;20217;-44
2023/10/03 01:15:16;;;;;;;13.20;7.93;;;;;;;13.59;87.26;95574.91;5069381;28;20229;-44
2023/10/03 01:17:47;;;;;;;17.50;7.40;;;;;;;13.58;87.35;95567.34;5069462;28;20193;-44
2023/10/03 01:20:23;;;;;;;19.57;8.27;;;;;;;13.29;87.33;95532.97;5079718;28;20557;-45
2023/10/03 01:22:54;;;;;;;10.90;6.50;;;;;;;13.50;87.79;95563.69;5089289;28;20663;-44
2023/10/03 01:25:22;;;;;;;10.77;7.30;;;;;;;13.48;87.81;95567.34;5089520;28;20181;-45
2023/10/03 01:27:49;;;;;;;13.23;7.67;;;;;;;13.43;87.94;95565.19;5089247;28;20221;-44
2023/10/03 01:30:16;;;;;;;11.07;7.77;;;;;;;13.44;87.87;95571.13;5089267;28;20571;-43
2023/10/03 01:32:49;;;;;;;15.37;8.23;;;;;;;13.41;88.15;95572.19;5089477;28;20182;-44
2023/10/03 01:35:16;;;;;;;14.40;6.60;;;;;;;13.40;88.16;95562.88;5089449;28;20197;-44
2023/10/03 01:37:45;;;;;;;14.90;7.20;;;;;;;13.34;88.28;95545.41;5089581;28;20213;-43
2023/10/03 01:40:13;;;;;;;11.67;6.90;;;;;;;13.38;88.21;95567.31;5089069;28;20196;-44
2023/10/03 01:42:45;;;;;;;14.73;7.73;;;;;;;13.37;88.33;95565.69;5089072;28;20302;-44
2023/10/03 01:45:12;;;;;;;15.53;8.10;;;;;;;13.39;88.15;95574.09;5088612;28;20190;-44
2023/10/03 01:47:40;;;;;;;13.93;7.60;;;;;;;13.37;88.19;95564.91;5089074;28;20252;-45
2023/10/03 01:50:08;;;;;;;13.70;7.77;;;;;;;13.33;88.41;95564.34;5089062;28;20189;-44
2023/10/03 01:52:35;;;;;;;10.13;6.87;;;;;;;13.28;88.48;95567.31;5089400;28;20182;-45
2023/10/03 01:55:03;;;;;;;13.03;7.73;;;;;;;13.28;88.46;95566.50;5089308;28;20216;-45
2023/10/03 01:57:33;;;;;;;11.50;7.50;;;;;;;13.25;88.64;95565.00;5089400;28;20185;-45
2023/10/03 02:00:01;;;;;;;10.43;7.53;;;;;;;13.19;88.77;95562.13;5092904;28;20268;-43
2023/10/03 02:02:29;;;;;;;12.13;7.97;;;;;;;13.19;88.70;95562.13;5093077;28;20189;-45
2023/10/03 02:04:56;;;;;;;8.13;6.77;;;;;;;13.19;88.69;95557.81;5093469;28;20189;-43
2023/10/03 02:07:26;;;;;;;12.77;7.40;;;;;;;13.19;88.94;95559.56;5092959;28;20225;-45
2023/10/03 02:09:53;;;;;;;9.53;7.87;;;;;;;13.15;88.99;95548.72;5093404;28;20193;-44
2023/10/03 02:12:21;;;;;;;12.43;7.57;;;;;;;13.18;88.79;95550.25;5074031;28;20194;-44
2023/10/03 02:14:49;;;;;;;11.40;7.30;;;;;;;13.17;88.93;95541.72;5089033;28;20186;-43
2023/10/03 02:17:17;;;;;;;14.07;7.67;;;;;;;13.13;89.03;95537.78;5092548;28;20589;-44
2023/10/03 02:19:45;;;;;;;9.90;7.57;;;;;;;13.12;88.94;95536.16;5093140;28;20197;-45
2023/10/03 02:22:13;;;;;;;11.60;7.47;;;;;;;13.07;89.08;95536.53;5092504;28;20197;-43
2023/10/03 02:24:41;;;;;;;8.20;7.13;;;;;;;13.05;89.13;95533.31;5093275;28;20181;-44
2023/10/03 02:27:09;;;;;;;9.90;6.57;;;;;;;13.03;89.09;95534.38;5089525;28;20287;-43
2023/10/03 02:29:38;;;;;;;13.27;8.03;;;;;;;13.00;89.21;95530.34;5072845;28;20688;-44
2023/10/03 02:32:07;;;;;;;17.43;7.63;;;;;;;12.85;89.22;95505.97;5072028;28;20190;-46
2023/10/03 02:34:37;;;;;;;10.37;7.13;;;;;;;12.98;89.72;95526.25;5072390;28;20745;-45
2023/10/03 02:37:04;;;;;;;11.23;7.23;;;;;;;12.95;89.89;95529.09;5072169;28;20639;-43
2023/10/03 02:39:38;;;;;;;12.50;7.07;;;;;;;12.94;89.81;95530.84;5072225;28;20209;-44
2023/10/03 02:42:09;;;;;;;11.97;7.03;;;;;;;12.93;89.85;95528.41;5071759;28;20217;-44
2023/10/03 02:44:36;;;;;;;13.40;7.27;;;;;;;12.90;89.86;95526.91;5070893;28;20629;-44
2023/10/03 02:47:04;;;;;;;8.67;6.57;;;;;;;12.85;90.27;95515.41;5072189;28;20194;-46
2023/10/03 02:49:32;;;;;;;10.97;7.30;;;;;;;12.84;90.19;95511.25;5072018;28;20205;-44
2023/10/03 02:52:00;;;;;;;18.30;7.57;;;;;;;12.89;90.30;95524.50;5072067;28;20213;-44
2023/10/03 02:54:26;;;;;;;18.23;7.50;;;;;;;12.88;90.20;95530.56;5072107;28;20553;-45
2023/10/03 02:56:53;;;;;;;12.93;7.27;;;;;;;12.90;90.03;95528.66;5072094;28;20182;-43
2023/10/03 02:59:20;;;;;;;11.70;7.30;;;;;;;12.90;90.21;95532.03;5072299;28;20186;-44
2023/10/03 03:01:52;;;;;;;12.40;7.27;;;;;;;12.90;90.06;95539.75;5072202;28;20644;-44
2023/10/03 03:04:18;;;;;;;11.30;7.50;;;;;;;12.90;89.86;95538.94;5071862;28;20289;-44
2023/10/03 03:06:46;;;;;;;10.43;6.57;;;;;;;12.89;90.07;95537.31;5071939;28;20201;-46
2023/10/03 03:09:23;;;;;;;11.23;6.97;;;;;;;12.84;89.72;95537.72;5071463;28;20771;-46
2023/10/03 03:11:50;;;;;;;11.27;7.10;;;;;;;12.35;89.90;95457.22;5071903;28;20900;-45
2023/10/03 03:14:18;;;;;;;10.43;6.80;;;;;;;12.88;89.79;95543.41;5071775;28;20206;-45
2023/10/03 03:16:48;;;;;;;11.17;7.33;;;;;;;12.82;89.83;95539.59;5071705;28;20216;-45
2023/10/03 03:19:15;;;;;;;11.90;6.70;;;;;;;12.83;89.98;95546.38;5071404;28;20673;-43
2023/10/03 03:21:44;;;;;;;10.07;6.57;;;;;;;12.83;89.63;95551.50;5071528;28;20187;-44
2023/10/03 03:24:17;;;;;;;11.47;7.60;;;;;;;12.82;89.78;95552.41;5071482;28;20194;-44
2023/10/03 03:26:47;;;;;;;12.20;6.63;;;;;;;12.80;89.99;95550.00;5072576;28;20559;-44
2023/10/03 03:29:20;;;;;;;9.47;6.80;;;;;;;12.80;89.54;95550.00;5072766;28;20355;-44
2023/10/03 03:31:49;;;;;;;14.63;7.50;;;;;;;12.75;89.46;95556.47;5072035;28;20367;-43
2023/10/03 03:34:16;;;;;;;11.30;6.97;;;;;;;12.77;89.56;95555.38;5072045;28;20195;-45
2023/10/03 03:36:46;;;;;;;14.40;6.80;;;;;;;12.73;89.39;95560.91;5073099;28;20197;-46
2023/10/03 03:39:15;;;;;;;11.83;7.47;;;;;;;12.42;89.32;95516.50;5071070;28;20194;-44
2023/10/03 03:41:42;;;;;;;13.73;7.50;;;;;;;12.64;89.61;95562.50;5073277;28;20230;-43
2023/10/03 03:44:12;;;;;;;12.73;7.23;;;;;;;12.50;89.67;95542.31;5091127;28;20611;-43
2023/10/03 03:46:40;;;;;;;13.27;7.97;;;;;;;12.55;89.63;95561.50;5091870;28;20530;-45
2023/10/03 03:49:08;;;;;;;15.20;7.23;;;;;;;12.56;89.62;95567.44;5090668;28;20221;-44
2023/10/03 03:51:35;;;;;;;13.10;7.17;;;;;;;12.37;89.46;95537.41;5091300;28;20182;-44
2023/10/03 03:54:03;;;;;;;13.13;7.43;;;;;;;12.59;89.33;95569.78;5091331;28;20189;-44
2023/10/03 03:56:29;;;;;;;10.47;7.50;;;;;;;12.53;89.52;95565.97;5090758;28;20196;-44
2023/10/03 03:58:56;;;;;;;17.87;7.03;;;;;;;12.48;89.58;95569.88;5090757;28;20196;-45
2023/10/03 04:01:24;;;;;;;15.10;7.47;;;;;;;12.48;89.46;95580.94;5091246;28;20178;-45
2023/10/03 04:03:53;;;;;;;18.40;8.23;;;;;;;12.48;89.36;95575.81;5091189;28;20178;-45
2023/10/03 04:06:20;;;;;;;11.37;7.07;;;;;;;12.47;89.34;95569.03;5090503;28;20181;-44
2023/10/03 04:08:47;;;;;;;14.90;7.13;;;;;;;12.26;89.30;95546.00;5090939;28;20645;-45
2023/10/03 04:11:14;;;;;;;15.03;7.20;;;;;;;12.41;89.68;95574.69;5082827;28;20190;-45
2023/10/03 04:13:49;;;;;;;12.93;7.70;;;;;;;12.40;89.42;95575.63;5070892;28;20198;-44
2023/10/03 04:16:16;;;;;;;13.47;7.07;;;;;;;12.39;89.28;95583.44;5071177;28;20573;-45
2023/10/03 04:18:49;;;;;;;14.87;7.23;;;;;;;12.36;89.70;95576.81;5070109;28;20278;-44
2023/10/03 04:21:16;;;;;;;15.20;7.27;;;;;;;12.35;89.70;95575.19;5069453;28;20190;-45
2023/10/03 04:23:44;;;;;;;10.17;7.20;;;;;;;12.33;89.83;95579.63;5070316;28;20630;-44
2023/10/03 04:26:11;;;;;;;10.57;7.77;;;;;;;12.31;90.00;95573.81;5083314;28;20630;-43
2023/10/03 04:28:38;;;;;;;13.07;7.77;;;;;;;12.17;90.32;95551.84;5090380;28;20728;-45
2023/10/03 04:31:06;;;;;;;15.67;7.50;;;;;;;12.28;90.23;95571.50;5080137;28;20225;-43
2023/10/03 04:33:32;;;;;;;14.07;6.53;;;;;;;12.25;90.58;95562.28;5071870;28;20201;-49
2023/10/03 04:36:04;;;;;;;13.00;8.00;;;;;;;12.24;90.82;95563.25;5072482;28;20688;-44
2023/10/03 04:38:31;;;;;;;14.50;6.70;;;;;;;12.08;90.92;95539.78;5070341;28;20191;-44
2023/10/03 04:40:58;;;;;;;15.80;8.47;;;;;;;12.24;91.01;95563.25;5087650;28;20267;-51
2023/10/03 04:43:29;;;;;;;12.23;8.10;;;;;;;12.18;91.23;95553.50;5090298;28;20190;-43
2023/10/03 04:45:56;;;;;;;15.53;6.77;;;;;;;12.27;91.20;95567.31;5089993;28;20657;-43
2023/10/03 04:48:23;;;;;;;14.30;8.43;;;;;;;12.30;90.69;95562.75;5085942;28;20298;-45
2023/10/03 04:50:50;;;;;;;19.77;8.33;;;;;;;12.38;90.59;95567.22;5069075;28;20251;-44
2023/10/03 04:53:18;;;;;;;22.13;8.50;;;;;;;12.46;90.49;95569.16;5089183;28;20199;-45
2023/10/03 04:55:48;;;;;;;22.90;10.27;;;;;;;12.48;90.34;95575.00;5071529;28;20264;-44
2023/10/03 04:58:15;;;;;;;17.27;9.50;;;;;;;12.53;89.95;95571.09;5069968;28;20367;-45
2023/10/03 05:00:42;;;;;;;19.00;8.40;;;;;;;12.59;89.56;95574.09;5069739;28;20182;-44
2023/10/03 05:03:10;;;;;;;22.33;8.60;;;;;;;12.68;89.24;95575.88;5069862;28;20744;-45
2023/10/03 05:05:37;;;;;;;15.43;7.53;;;;;;;12.77;89.04;95563.06;5089722;28;20661;-44
2023/10/03 05:08:05;;;;;;;16.33;7.73;;;;;;;12.94;88.02;95561.66;5089775;28;20246;-44
2023/10/03 05:10:35;;;;;;;13.43;7.37;;;;;;;13.10;87.69;95568.88;5089941;28;20656;-45
2023/10/03 05:13:03;;;;;;;10.97;7.97;;;;;;;13.28;86.57;95579.34;5089602;28;20305;-45
2023/10/03 05:15:30;;;;;;;16.30;8.17;;;;;;;12.87;85.41;95486.13;5090003;28;20255;-45
2023/10/03 05:17:57;;;;;;;12.73;7.97;;;;;;;13.42;84.93;95550.69;5090165;28;20189;-45
2023/10/03 05:20:34;;;;;;;17.47;7.60;;;;;;;13.71;84.07;95583.31;5076308;28;20190;-45
2023/10/03 05:23:02;;;;;;;12.20;7.87;;;;;;;13.76;83.40;95566.53;5072700;28;20204;-43
2023/10/03 05:25:28;;;;;;;12.80;7.17;;;;;;;13.94;82.95;95571.81;5068109;28;20217;-43
2023/10/03 05:27:57;;;;;;;10.30;7.73;;;;;;;14.18;81.98;95586.81;5068307;28;20665;-45
2023/10/03 05:30:25;;;;;;;18.90;9.70;;;;;;;14.42;81.58;95588.13;5068626;28;20210;-43
2023/10/03 05:32:52;;;;;;;15.60;7.97;;;;;;;14.61;80.26;95588.09;5068149;28;20669;-43
2023/10/03 05:35:21;;;;;;;15.23;8.47;;;;;;;14.79;79.56;95585.59;5068315;28;20442;-43
2023/10/03 05:37:50;;;;;;;11.40;7.97;;;;;;;15.06;78.24;95579.66;5068358;28;20206;-43
2023/10/03 05:40:19;;;;;;;14.40;8.90;;;;;;;15.26;76.97;95583.75;5068571;28;20201;-45
2023/10/03 05:42:47;;;;;;;15.20;8.73;;;;;;;15.45;76.16;95582.81;5067590;28;20222;-43
2023/10/03 05:45:17;;;;;;;15.03;8.53;;;;;;;15.54;75.46;95587.13;5068584;28;20198;-45
2023/10/03 05:47:45;;;;;;;14.80;8.40;;;;;;;15.69;74.94;95592.59;5068477;28;20338;-43
2023/10/03 05:50:14;;;;;;;13.57;8.50;;;;;;;15.71;74.52;95574.41;5067716;28;20222;-45
2023/10/03 05:52:41;;;;;;;23.87;8.97;;;;;;;15.88;74.18;95590.81;5068638;28;20197;-42
2023/10/03 05:55:09;;;;;;;15.67;8.30;;;;;;;16.19;73.44;95592.06;5069067;28;20182;-43
2023/10/03 05:57:37;;;;;;;15.97;8.73;;;;;;;16.41;72.29;95602.88;5069404;28;20519;-45
2023/10/03 06:00:08;;;;;;;15.07;8.53;;;;;;;16.54;72.15;95588.59;5068060;28;20530;-45
2023/10/03 06:02:38;;;;;;;11.60;8.73;;;;;;;16.91;70.64;95605.59;5068249;28;20611;-45
2023/10/03 06:05:06;;;;;;;15.57;8.80;;;;;;;17.10;69.62;95598.56;5067878;28;20248;-44
2023/10/03 06:07:33;;;;;;;16.23;8.83;;;;;;;17.20;69.27;95581.19;5068215;28;20266;-43
2023/10/03 06:10:00;;;;;;;18.90;8.23;;;;;;;17.41;69.14;95588.53;5068083;28;20311;-44
2023/10/03 06:12:28;;;;;;;15.87;8.33;;;;;;;17.73;68.42;95600.69;5068193;28;20194;-44
2023/10/03 06:14:55;;;;;;;15.03;9.43;;;;;;;17.98;67.09;95593.81;5068173;28;20194;-44
2023/10/03 06:17:22;;;;;;;16.73;8.63;;;;;;;18.18;65.98;95602.09;5067321;28;20202;-44
2023/10/03 06:19:50;;;;;;;22.13;9.00;;;;;;;18.15;65.58;95605.78;5067670;28;20258;-45
2023/10/03 06:22:17;;;;;;;17.60;8.93;;;;;;;18.28;64.88;95603.53;5068591;28;20182;-43
2023/10/03 06:24:45;;;;;;;17.60;8.80;;;;;;;18.40;64.36;95606.59;5068169;28;20198;-45
2023/10/03 06:27:12;;;;;;;18.53;9.60;;;;;;;18.53;63.96;95614.66;5068143;28;20186;-45
2023/10/03 06:29:40;;;;;;;21.60;9.47;;;;;;;18.58;63.49;95611.59;5067566;28;20245;-42
2023/10/03 06:32:07;;;;;;;23.77;9.37;;;;;;;18.43;63.88;95614.03;5067840;28;20657;-44
2023/10/03 06:34:34;;;;;;;18.40;8.90;;;;;;;18.38;64.11;95607.72;5067846;28;20193;-44
2023/10/03 06:37:04;;;;;;;18.63;8.53;;;;;;;18.42;64.13;95607.22;5067344;28;20214;-44
2023/10/03 06:39:31;;;;;;;19.10;9.70;;;;;;;18.56;64.14;95616.09;5067702;28;20642;-44
2023/10/03 06:41:58;;;;;;;14.70;9.60;;;;;;;18.74;63.68;95614.19;5067260;28;20226;-44
2023/10/03 06:44:25;;;;;;;14.93;10.03;;;;;;;18.98;62.87;95615.09;5066357;28;20317;-43
2023/10/03 06:46:53;;;;;;;16.33;9.37;;;;;;;19.02;61.93;95617.19;5071025;28;20252;-42
2023/10/03 06:49:23;;;;;;;19.37;10.07;;;;;;;18.99;62.15;95624.47;5071037;28;20226;-43
2023/10/03 06:51:51;;;;;;;20.57;10.73;;;;;;;19.04;61.81;95624.78;5071349;28;20200;-44
2023/10/03 06:54:20;;;;;;;20.90;9.97;;;;;;;19.11;61.53;95609.38;5071288;28;20195;-43
2023/10/03 06:56:48;;;;;;;22.00;10.00;;;;;;;19.26;60.88;95615.50;5070830;28;20735;-43
2023/10/03 06:59:14;;;;;;;17.90;9.70;;;;;;;19.24;60.78;95620.03;5071060;28;20190;-43
2023/10/03 07:01:42;;;;;;;16.93;9.93;;;;;;;19.23;61.08;95628.78;5070689;28;20198;-44
2023/10/03 07:04:10;;;;;;;17.17;9.27;;;;;;;19.34;60.75;95625.00;5070943;28;20661;-45
2023/10/03 07:06:36;;;;;;;18.03;10.13;;;;;;;19.34;60.51;95625.81;5070519;28;20201;-45
2023/10/03 07:09:07;;;;;;;12.57;9.23;;;;;;;19.33;60.34;95631.97;5070080;28;20253;-45
2023/10/03 07:11:36;;;;;;;14.33;10.07;;;;;;;19.39;60.04;95636.50;5071136;28;20576;-44
2023/10/03 07:14:03;;;;;;;16.70;9.20;;;;;;;19.49;59.81;95639.69;5071019;28;20198;-44
2023/10/03 07:16:37;;;;;;;20.03;10.93;;;;;;;19.64;59.40;95641.59;5071348;28;20190;-44
2023/10/03 07:19:04;;;;;;;12.77;9.37;;;;;;;19.59;59.33;95636.88;5067604;28;20248;-43
2023/10/03 07:21:31;;;;;;;15.17;9.50;;;;;;;19.55;59.47;95640.78;5070426;28;20285;-43
2023/10/03 07:23:58;;;;;;;15.83;9.17;;;;;;;19.54;59.25;95639.19;5070334;28;20277;-44
2023/10/03 07:26:27;;;;;;;15.60;10.40;;;;;;;19.40;59.59;95642.50;5070975;28;20189;-44
2023/10/03 07:28:58;;;;;;;22.07;11.33;;;;;;;19.48;59.99;95650.25;5070774;28;20267;-43
2023/10/03 07:31:25;;;;;;;17.60;10.63;;;;;;;19.62;59.74;95643.56;5070645;28;20186;-43
2023/10/03 07:33:56;;;;;;;17.67;10.60;;;;;;;19.74;59.35;95647.41;5070332;28;20186;-43
2023/10/03 07:36:23;;;;;;;16.35;9.50;;;;;;;19.93;58.59;95641.75;5070464;28;20198;-42
2023/10/03 07:38:49;;;;;;;18.67;10.05;;;;;;;19.99;58.09;95648.88;5070490;28;20198;-43
2023/10/03 07:41:17;;;;;;;17.07;9.50;;;;;;;19.95;58.00;95647.59;5071997;28;20229;-43
2023/10/03 07:43:47;;;;;;;23.10;10.60;;;;;;;19.94;58.23;95642.56;5069978;28;20252;-42
2023/10/03 07:46:20;;;;;;;19.48;10.82;;;;;;;19.90;58.08;95646.47;5070427;28;20281;-43
2023/10/03 07:48:48;;;;;;;16.23;9.60;;;;;;;19.88;58.34;95633.66;5069919;28;20187;-43
2023/10/03 07:51:18;;;;;;;14.55;9.52;;;;;;;19.95;58.35;95634.63;5069967;28;20632;-43
2023/10/03 07:53:45;;;;;;;22.95;10.65;;;;;;;20.10;58.12;95636.44;5069755;28;20694;-41
2023/10/03 07:56:17;;;;;;;15.73;9.05;;;;;;;20.35;57.87;95642.28;5070180;28;20206;-43
2023/10/03 07:58:44;;;;;;;17.73;10.35;;;;;;;20.61;56.41;95634.13;5070350;28;20748;-42
2023/10/03 08:01:13;;;;;;;17.67;9.55;;;;;;;20.83;56.22;95646.25;5070259;28;20282;-42
2023/10/03 08:03:42;;;;;;;19.92;9.75;;;;;;;20.94;55.08;95645.00;5069817;28;20185;-43
2023/10/03 08:06:10;;;;;;;15.32;9.88;;;;;;;20.78;54.85;95635.59;5070213;28;20226;-42
2023/10/03 08:08:37;;;;;;;15.52;9.77;;;;;;;20.79;55.85;95635.41;5070256;28;20214;-42
2023/10/03 08:11:06;;;;;;;17.63;9.25;;;;;;;20.96;55.22;95633.44;5070637;28;20182;-44
2023/10/03 08:13:38;;;;;;;12.82;7.63;;;;;;;21.00;54.59;95645.09;5071396;28;20273;-43
2023/10/03 08:16:05;;;;;;;15.13;9.45;;;;;;;21.03;54.46;95636.97;5070314;28;20186;-42
2023/10/03 08:18:36;;;;;;;13.82;9.52;;;;;;;20.94;54.73;95627.63;5069776;28;20190;-43
2023/10/03 08:21:04;;;;;;;17.35;8.93;;;;;;;20.93;54.71;95635.59;5069699;28;20205;-42
2023/10/03 08:23:33;;;;;;;17.83;9.63;;;;;;;20.84;54.88;95629.66;5069794;28;20225;-43
2023/10/03 08:26:02;;;;;;;17.13;9.85;;;;;;;21.02;55.14;95629.31;5070860;28;20210;-43
2023/10/03 08:28:30;;;;;;;12.73;8.48;;;;;;;21.32;54.53;95634.53;5069351;28;20222;-43
2023/10/03 08:30:57;;;;;;;16.17;8.88;;;;;;;21.63;53.82;95629.09;5069486;28;20692;-43
2023/10/03 08:33:24;;;;;;;14.70;8.68;;;;;;;21.88;52.94;95622.56;5070750;28;20183;-42
2023/10/03 08:35:52;;;;;;;13.23;8.43;;;;;;;22.06;52.49;95622.13;5069244;28;20198;-44
2023/10/03 08:38:20;;;;;;;12.43;7.97;;;;;;;22.25;51.38;95618.16;5070283;28;20190;-42
2023/10/03 08:40:49;;;;;;;11.60;7.97;;;;;;;22.32;50.73;95623.41;5068767;28;20711;-44
2023/10/03 08:43:25;;;;;;;12.73;8.27;;;;;;;22.28;50.56;95613.38;5069040;28;20204;-44
2023/10/03 08:45:56;;;;;;;17.17;8.77;;;;;;;22.26;50.74;95614.53;5069563;28;20182;-43
2023/10/03 08:48:25;;;;;;;19.73;9.52;;;;;;;22.16;50.81;95609.66;5069985;28;20207;-42
2023/10/03 08:50:58;;;;;;;16.85;8.32;;;;;;;22.17;51.35;95608.66;5068536;28;20317;-42
2023/10/03 08:53:31;;;;;;;18.42;9.07;;;;;;;22.31;50.93;95601.75;5071528;28;20188;-43
2023/10/03 08:55:59;;;;;;;13.90;8.68;;;;;;;22.41;49.57;95610.06;5068997;28;20270;-44
2023/10/03 08:58:27;;;;;;;17.05;8.65;;;;;;;21.86;50.25;95528.19;5067001;28;20190;-44
2023/10/03 09:00:59;;;;;;;22.95;8.25;;;;;;;22.32;50.08;95598.16;5069506;28;20244;-44
2023/10/03 09:03:42;;;;;;;13.93;9.05;;;;;;;22.22;50.10;95598.47;5068671;28;20213;-44
2023/10/03 09:06:09;;;;;;;20.73;8.50;;;;;;;22.19;50.40;95598.03;5068822;28;20209;-43
2023/10/03 09:08:42;;;;;;;13.40;7.13;;;;;;;22.24;50.19;95590.50;5068523;28;20251;-44
2023/10/03 09:11:13;;;;;;;25.50;8.95;;;;;;;22.21;50.11;95586.44;5069019;28;20226;-44
2023/10/03 09:13:45;;;;;;;13.10;7.55;;;;;;;22.37;49.68;95595.00;5068779;28;20267;-45
2023/10/03 09:16:14;;;;;;;11.80;7.70;;;;;;;22.30;49.46;95589.72;5068429;28;20243;-44
2023/10/03 09:18:42;;;;;;;16.08;8.93;;;;;;;22.14;50.20;95595.19;5063157;28;20217;-44
2023/10/03 09:21:14;;;;;;;14.80;8.13;;;;;;;21.93;51.04;95591.56;5068818;28;20209;-44
2023/10/03 09:24:09;;;;;;;12.85;7.22;;;;;;;21.86;50.91;95579.47;5068015;28;20194;-44
2023/10/03 09:26:50;;;;;;;16.33;7.45;;;;;;;21.91;51.07;95585.75;5068395;28;20247;-45
2023/10/03 09:29:29;;;;;;;11.65;8.05;;;;;;;21.96;50.69;95583.38;5066657;28;20198;-44
2023/10/03 09:31:58;;;;;;;14.80;7.78;;;;;;;21.87;51.04;95579.28;5068240;28;20686;-45
2023/10/03 09:34:30;;;;;;;16.38;8.60;;;;;;;21.82;51.53;95583.44;5068225;28;20186;-45
2023/10/03 09:37:02;;;;;;;17.63;8.20;;;;;;;21.78;51.83;95578.59;5068284;28;20259;-44
2023/10/03 09:39:30;;;;;;;16.45;8.07;;;;;;;21.81;51.74;95581.84;5066328;28;20242;-44
2023/10/03 09:41:58;;;;;;;12.38;7.20;;;;;;;21.85;51.66;95570.88;5071788;28;20250;-45
2023/10/03 09:44:30;;;;;;;9.50;7.30;;;;;;;21.91;51.01;95564.09;5067950;28;20194;-46
2023/10/03 09:47:06;;;;;;;14.23;8.18;;;;;;;21.84;51.34;95569.22;5068344;28;20190;-44
2023/10/03 09:49:40;;;;;;;12.63;7.75;;;;;;;21.82;51.20;95570.44;5067639;28;20257;-44
2023/10/03 09:52:09;;;;;;;10.23;7.05;;;;;;;21.86;50.88;95563.84;5065899;28;20188;-44
2023/10/03 09:54:38;;;;;;;12.35;7.63;;;;;;;21.95;50.96;95567.94;5067925;28;20194;-46
2023/10/03 09:57:16;;;;;;;16.25;7.80;;;;;;;21.98;50.91;95571.00;5068201;28;20577;-45
2023/10/03 09:59:46;;;;;;;12.63;7.93;;;;;;;22.03;50.58;95563.41;5068165;28;20194;-44
2023/10/03 10:02:14;;;;;;;15.40;8.18;;;;;;;22.03;50.68;95547.78;5068174;28;20194;-45
2023/10/03 10:04:43;;;;;;;20.50;8.82;;;;;;;22.11;50.73;95559.88;5066430;28;20380;-45
2023/10/03 10:07:17;;;;;;;12.45;7.00;;;;;;;22.16;50.62;95554.13;5067969;28;20191;-45
2023/10/03 10:10:07;;;;;;;15.35;7.43;;;;;;;22.22;50.16;95550.75;5068347;28;20216;-44
2023/10/03 10:12:37;;;;;;;14.55;7.53;;;;;;;22.12;50.22;95545.06;5067957;28;20197;-45
2023/10/03 10:15:14;;;;;;;14.35;7.93;;;;;;;21.98;50.04;95524.09;5068143;28;20194;-45
2023/10/03 10:17:45;;;;;;;17.92;7.60;;;;;;;22.14;50.03;95540.47;5065399;28;20247;-45
2023/10/03 10:20:17;;;;;;;14.00;7.28;;;;;;;22.19;49.81;95531.13;5071469;28;20225;-46
2023/10/03 10:23:20;;;;;;;12.68;6.95;;;;;;;22.09;50.08;95530.59;5072152;28;20190;-45
2023/10/03 10:25:56;;;;;;;11.43;7.03;;;;;;;21.99;50.24;95525.72;5070229;28;20293;-45
2023/10/03 10:28:34;;;;;;;13.40;7.40;;;;;;;21.64;49.90;95454.50;5071541;28;20265;-46
2023/10/03 10:31:29;;;;;;;10.88;6.65;;;;;;;22.06;50.04;95512.72;5070524;28;20225;-47
2023/10/03 10:34:32;;;;;;;13.15;6.50;;;;;;;22.15;50.42;95513.41;5009810;28;20192;-45
2023/10/03 10:37:03;;;;;;;15.00;6.63;;;;;;;22.24;49.96;95512.31;5010337;28;20192;-46
2023/10/03 10:40:21;;;;;;;11.65;7.65;;;;;;;22.35;49.40;95508.34;5009651;28;20695;-44
2023/10/03 10:43:04;;;;;;;10.75;7.07;;;;;;;22.27;49.57;95511.91;5008350;28;20224;-45
2023/10/03 10:45:38;;;;;;;15.05;7.05;;;;;;;22.16;49.59;95487.19;5009258;28;20199;-45
2023/10/03 10:48:06;;;;;;;11.18;6.95;;;;;;;22.15;49.53;95488.19;5009377;28;20203;-45
2023/10/03 10:51:07;;;;;;;9.70;6.45;;;;;;;22.22;49.82;95503.84;5009038;28;20230;-44
2023/10/03 10:53:42;;;;;;;19.48;7.95;;;;;;;22.30;49.53;95501.09;5009534;28;20675;-45
2023/10/03 10:56:09;;;;;;;15.32;8.50;;;;;;;22.35;49.23;95496.13;5011116;28;20180;-45
2023/10/03 10:58:50;;;;;;;12.85;8.20;;;;;;;22.43;48.44;95498.59;5009527;28;20203;-45
2023/10/03 11:01:18;;;;;;;15.27;7.60;;;;;;;22.38;48.39;95489.75;5007995;28;20192;-45
2023/10/03 11:03:44;;;;;;;12.65;7.28;;;;;;;22.29;49.19;95484.66;5009042;28;20298;-44
2023/10/03 11:06:15;;;;;;;14.68;8.20;;;;;;;22.23;49.21;95488.03;5009370;28;20221;-45
2023/10/03 11:08:47;;;;;;;9.45;6.68;;;;;;;22.27;49.46;95485.84;5009107;28;20303;-44
2023/10/03 11:11:14;;;;;;;18.92;7.40;;;;;;;22.34;49.46;95473.66;5059354;28;20717;-44
2023/10/03 11:13:50;;;;;;;11.93;7.22;;;;;;;22.45;49.10;95474.94;5071306;28;20182;-44
2023/10/03 11:16:25;;;;;;;15.80;7.00;;;;;;;22.55;48.92;95475.41;5070899;28;20588;-44
2023/10/03 11:18:54;;;;;;;14.02;6.85;;;;;;;22.64;48.77;95468.22;5071305;28;20193;-44
2023/10/03 11:21:21;;;;;;;13.05;7.05;;;;;;;22.68;48.26;95457.22;5071343;28;20194;-45
2023/10/03 11:24:14;;;;;;;17.00;7.32;;;;;;;22.65;48.70;95462.81;5071228;28;20217;-44
2023/10/03 11:26:46;;;;;;;13.95;7.82;;;;;;;22.53;49.13;95461.75;5071012;28;20261;-44
2023/10/03 11:29:16;;;;;;;12.20;7.68;;;;;;;22.55;48.99;95457.16;5070273;28;20209;-44
2023/10/03 11:31:44;;;;;;;16.52;7.38;;;;;;;22.56;49.13;95453.53;5069949;28;20218;-44
2023/10/03 11:34:11;;;;;;;10.85;6.82;;;;;;;22.64;48.77;95449.97;5070354;28;20194;-45
2023/10/03 11:36:42;;;;;;;14.35;6.53;;;;;;;22.76;48.45;95443.22;5072934;28;20197;-45